Time;durP1;ratioP1;P1;durP2;ratioP2;P2;SDS_P1;SDS_P2;PMS_P1;PMS_P2;Temp;Humidity;BMP_temperature;BMP_pressure;BME280_temperature;BME280_humidity;BME280_pressure;Samples;Min_cycle;Max_cycle;Signal;HPM_P1;HPM_P2
2022/08/07 00:00:21;;;;;;;0.60;0.60;;;24.20;45.80;23.40;102274.00;;;;5083957;28;20522;-64
2022/08/07 00:03:08;;;;;;;0.85;0.70;;;24.20;45.80;23.40;102273.00;;;;5083798;28;20040;-64
2022/08/07 00:05:54;;;;;;;0.70;0.60;;;24.20;45.80;23.40;102273.00;;;;5088404;28;20548;-64
2022/08/07 00:08:40;;;;;;;0.75;0.60;;;24.20;45.90;23.40;102268.00;;;;5083439;28;20117;-64
2022/08/07 00:11:26;;;;;;;0.82;0.75;;;24.20;45.90;23.40;102278.00;;;;5088610;28;20063;-64
2022/08/07 00:14:12;;;;;;;0.60;0.60;;;24.20;45.90;23.40;102272.00;;;;5089764;28;20044;-64
2022/08/07 00:17:00;;;;;;;1.25;0.80;;;24.20;45.90;23.40;102270.00;;;;5082861;28;20131;-64
2022/08/07 00:19:46;;;;;;;1.27;0.70;;;24.20;46.00;23.40;102260.00;;;;5089968;28;20068;-64
2022/08/07 00:22:32;;;;;;;0.88;0.70;;;24.20;46.70;23.40;102267.00;;;;5080614;28;20808;-64
2022/08/07 00:25:18;;;;;;;0.60;0.60;;;24.20;46.10;23.40;102260.00;;;;5088170;28;20051;-64
2022/08/07 00:28:04;;;;;;;1.00;0.70;;;24.10;46.00;23.40;102258.00;;;;5084404;28;20105;-64
2022/08/07 00:30:50;;;;;;;1.13;0.70;;;24.10;45.90;23.30;102251.00;;;;5085242;28;20037;-64
2022/08/07 00:33:37;;;;;;;1.52;0.95;;;24.10;45.90;23.30;102254.00;;;;5086803;28;20417;-64
2022/08/07 00:36:23;;;;;;;2.00;0.73;;;24.10;45.80;23.30;102255.00;;;;5080516;28;20056;-64
2022/08/07 00:39:10;;;;;;;0.73;0.73;;;24.10;45.80;23.30;102257.00;;;;5083716;28;20416;-64
2022/08/07 00:41:57;;;;;;;0.55;0.55;;;24.10;45.80;23.30;102251.00;;;;5066839;28;20067;-64
2022/08/07 00:44:43;;;;;;;1.02;0.73;;;24.10;45.90;23.30;102258.00;;;;5086926;28;20039;-64
2022/08/07 00:47:29;;;;;;;1.63;0.70;;;24.10;45.90;23.30;102255.00;;;;5087656;28;20051;-65
2022/08/07 00:50:15;;;;;;;0.65;0.65;;;24.00;45.90;23.30;102248.00;;;;5085550;28;20035;-64
2022/08/07 00:53:01;;;;;;;0.70;0.70;;;24.10;46.00;23.30;102253.00;;;;5081693;28;20044;-64
2022/08/07 00:55:48;;;;;;;1.45;0.68;;;24.00;45.90;23.30;102249.00;;;;5065493;28;20098;-64
2022/08/07 00:58:34;;;;;;;0.90;0.80;;;24.00;46.00;23.30;102251.00;;;;5084391;28;20044;-64
2022/08/07 01:01:20;;;;;;;0.90;0.60;;;24.00;46.00;23.30;102256.00;;;;5069529;28;20485;-64
2022/08/07 01:04:06;;;;;;;0.88;0.80;;;24.00;46.00;23.30;102248.00;;;;5072988;28;20075;-64
2022/08/07 01:06:52;;;;;;;0.52;0.52;;;24.00;45.90;23.20;102246.00;;;;5069917;28;20042;-64
2022/08/07 01:09:39;;;;;;;1.17;0.73;;;24.00;45.90;23.20;102249.00;;;;5062405;28;20043;-64
2022/08/07 01:12:25;;;;;;;1.63;0.90;;;24.00;45.80;23.20;102240.00;;;;5076634;28;20035;-64
2022/08/07 01:15:11;;;;;;;1.10;0.80;;;24.00;45.70;23.20;102237.00;;;;5075664;28;20040;-64
2022/08/07 01:17:57;;;;;;;0.85;0.85;;;23.90;45.70;23.20;102245.00;;;;5072601;28;20499;-64
2022/08/07 01:20:52;;;;;;;1.23;0.70;;;24.00;45.70;23.20;102236.00;;;;5071014;28;20039;-64
2022/08/07 01:23:41;;;;;;;1.23;0.70;;;24.00;45.80;23.20;102237.00;;;;5074223;28;20047;-64
2022/08/07 01:26:27;;;;;;;0.80;0.68;;;24.00;45.80;23.20;102238.00;;;;5078953;28;20060;-64
2022/08/07 01:29:13;;;;;;;0.60;0.60;;;23.90;45.90;23.20;102235.00;;;;5059853;28;20041;-64
2022/08/07 01:31:59;;;;;;;1.13;0.70;;;23.90;45.90;23.20;102235.00;;;;5083136;28;20591;-64
2022/08/07 01:34:45;;;;;;;1.00;0.73;;;23.90;45.90;23.20;102235.00;;;;5075352;28;20070;-64
2022/08/07 01:37:32;;;;;;;0.90;0.85;;;23.90;45.90;23.10;102225.00;;;;5074301;28;20036;-64
2022/08/07 01:40:19;;;;;;;0.95;0.60;;;23.90;45.80;23.10;102236.00;;;;5057408;28;20043;-64
2022/08/07 01:43:06;;;;;;;0.93;0.90;;;23.80;45.80;23.10;102229.00;;;;5079872;28;20489;-64
2022/08/07 01:45:52;;;;;;;0.70;0.70;;;23.80;45.80;23.10;102224.00;;;;5071792;28;20397;-64
2022/08/07 01:48:41;;;;;;;1.75;0.90;;;23.80;45.90;23.10;102228.00;;;;5084569;28;20482;-64
2022/08/07 01:51:27;;;;;;;1.10;0.60;;;23.80;45.90;23.10;102221.00;;;;5071793;28;20447;-64
2022/08/07 01:54:13;;;;;;;1.40;0.77;;;23.80;45.80;23.10;102229.00;;;;5060558;28;20051;-64
2022/08/07 01:57:14;;;;;;;0.90;0.85;;;23.80;45.80;23.10;102229.00;;;;5073077;28;20457;-64
2022/08/07 02:00:04;;;;;;;0.95;0.60;;;23.80;45.80;23.10;102226.00;;;;5071495;28;20043;-64
2022/08/07 02:02:54;;;;;;;0.70;0.70;;;23.80;45.70;23.00;102226.00;;;;5075000;28;20146;-64
2022/08/07 02:05:44;;;;;;;0.80;0.80;;;23.80;45.70;23.10;102224.00;;;;5061830;28;20124;-64
2022/08/07 02:08:50;;;;;;;1.23;0.93;;;23.80;45.70;23.00;102221.00;;;;5054014;28;20105;-64
2022/08/07 02:11:40;;;;;;;1.33;0.90;;;23.80;45.80;23.00;102219.00;;;;5060126;28;20453;-64
2022/08/07 02:14:27;;;;;;;0.70;0.70;;;23.80;45.70;23.00;102218.00;;;;5078518;28;20455;-63
2022/08/07 02:17:13;;;;;;;1.20;0.87;;;23.80;45.80;23.00;102219.00;;;;5069316;28;20037;-64
2022/08/07 02:20:00;;;;;;;1.33;0.80;;;23.80;45.80;23.00;102215.00;;;;5062180;28;20278;-64
2022/08/07 02:22:46;;;;;;;0.90;0.90;;;23.80;45.90;23.00;102212.00;;;;5069804;28;20110;-64
2022/08/07 02:25:34;;;;;;;1.58;0.73;;;23.70;45.80;23.00;102210.00;;;;5078616;28;20540;-64
2022/08/07 02:28:20;;;;;;;1.23;0.95;;;23.70;45.70;23.00;102201.00;;;;5074687;28;20036;-64
2022/08/07 02:31:07;;;;;;;0.70;0.70;;;23.70;45.70;23.00;102206.00;;;;5056717;28;20093;-64
2022/08/07 02:33:53;;;;;;;1.75;0.80;;;23.70;45.60;23.00;102213.00;;;;5073640;28;20557;-64
2022/08/07 02:36:39;;;;;;;1.10;1.00;;;23.70;45.50;23.00;102206.00;;;;5075121;28;20101;-64
2022/08/07 02:39:25;;;;;;;1.02;0.93;;;23.70;45.50;23.00;102193.00;;;;5061780;28;20048;-64
2022/08/07 02:42:11;;;;;;;1.17;0.98;;;23.70;45.50;23.00;102194.00;;;;5070053;28;20032;-64
2022/08/07 02:44:57;;;;;;;1.30;0.93;;;23.70;45.50;23.00;102197.00;;;;5060737;28;20040;-64
2022/08/07 02:47:43;;;;;;;0.73;0.73;;;23.70;45.50;23.00;102200.00;;;;5073735;28;20469;-64
2022/08/07 02:50:31;;;;;;;1.25;0.90;;;23.70;45.50;23.00;102195.00;;;;5056725;28;20055;-64
2022/08/07 02:53:23;;;;;;;1.13;1.02;;;23.70;45.50;22.90;102198.00;;;;5070015;28;20051;-63
2022/08/07 02:56:13;;;;;;;1.85;1.20;;;23.70;45.50;22.90;102194.00;;;;5060879;28;20032;-64
2022/08/07 02:59:02;;;;;;;1.17;0.88;;;23.70;45.50;22.90;102197.00;;;;5072568;28;20127;-64
2022/08/07 03:01:48;;;;;;;1.30;1.10;;;23.70;45.60;22.90;102209.00;;;;5066251;28;20515;-64
2022/08/07 03:04:34;;;;;;;1.00;0.88;;;23.60;45.50;22.90;102203.00;;;;5056136;28;20056;-64
2022/08/07 03:07:20;;;;;;;0.75;0.75;;;23.70;45.50;22.90;102200.00;;;;5072094;28;20511;-64
2022/08/07 03:10:07;;;;;;;0.90;0.85;;;23.70;45.60;22.90;102201.00;;;;5053380;28;20035;-64
2022/08/07 03:12:53;;;;;;;;;;;23.60;45.60;22.90;102203.00;;;;5074362;28;20036;-64
2022/08/07 03:15:40;;;;;;;0.95;0.80;;;23.70;45.80;22.90;102207.00;;;;5067593;28;19927;-63
2022/08/07 03:18:26;;;;;;;1.10;1.00;;;23.70;45.50;22.90;102208.00;;;;5059250;28;20049;-64
2022/08/07 03:21:12;;;;;;;2.05;1.10;;;23.60;45.50;22.80;102202.00;;;;5069745;28;20039;-64
2022/08/07 03:23:58;;;;;;;1.67;1.17;;;23.60;45.60;22.80;102200.00;;;;5068511;28;20036;-64
2022/08/07 03:26:44;;;;;;;1.13;0.95;;;23.60;45.50;22.80;102211.00;;;;5053289;28;20043;-64
2022/08/07 03:29:44;;;;;;;2.13;1.00;;;23.60;45.60;22.80;102195.00;;;;5076801;28;20105;-64
2022/08/07 03:32:33;;;;;;;1.27;0.95;;;23.50;45.50;22.80;102198.00;;;;5064292;28;20046;-64
2022/08/07 03:35:22;;;;;;;0.85;0.60;;;23.60;45.60;22.80;102202.00;;;;5079965;28;20550;-64
2022/08/07 03:38:08;;;;;;;2.05;1.30;;;23.60;45.70;22.80;102204.00;;;;5072023;28;20094;-64
2022/08/07 03:40:55;;;;;;;1.00;0.88;;;23.50;45.50;22.80;102204.00;;;;5062547;28;20048;-64
2022/08/07 03:43:41;;;;;;;1.23;0.80;;;23.50;45.60;22.80;102198.00;;;;5074781;28;20425;-64
2022/08/07 03:46:28;;;;;;;1.38;1.15;;;23.50;45.60;22.80;102201.00;;;;5080936;28;20161;-64
2022/08/07 03:49:14;;;;;;;1.33;1.02;;;23.50;45.60;22.80;102211.00;;;;5079998;28;20549;-64
2022/08/07 03:52:00;;;;;;;1.63;0.90;;;23.50;45.60;22.80;102214.00;;;;5078406;28;20508;-64
2022/08/07 03:54:46;;;;;;;1.75;1.00;;;23.50;45.60;22.80;102213.00;;;;5077469;28;20125;-64
2022/08/07 03:57:32;;;;;;;2.40;0.93;;;23.60;45.60;22.80;102212.00;;;;5078283;28;20071;-64
2022/08/07 04:00:18;;;;;;;2.15;0.90;;;23.50;45.60;22.80;102208.00;;;;5077421;28;20545;-64
2022/08/07 04:03:04;;;;;;;1.00;1.00;;;23.50;45.60;22.70;102211.00;;;;5069517;28;20044;-64
2022/08/07 04:05:50;;;;;;;1.80;0.93;;;23.50;45.60;22.70;102217.00;;;;5077052;28;20540;-64
2022/08/07 04:08:38;;;;;;;1.98;1.00;;;23.50;45.60;22.70;102218.00;;;;5072206;28;20047;-64
2022/08/07 04:11:24;;;;;;;1.27;0.90;;;23.50;45.60;22.70;102213.00;;;;5074148;28;20080;-64
2022/08/07 04:14:10;;;;;;;1.83;1.10;;;23.50;45.60;22.70;102216.00;;;;5079416;28;20036;-64
2022/08/07 04:16:56;;;;;;;2.08;1.10;;;23.50;45.60;22.70;102214.00;;;;5071098;28;20190;-64
2022/08/07 04:19:42;;;;;;;1.98;0.98;;;23.50;45.60;22.70;102220.00;;;;5075127;28;20047;-64
2022/08/07 04:22:29;;;;;;;3.17;1.10;;;23.40;45.60;22.70;102215.00;;;;5075731;28;20044;-64
2022/08/07 04:25:15;;;;;;;2.03;1.08;;;23.40;45.60;22.70;102219.00;;;;5065823;28;20579;-64
2022/08/07 04:28:01;;;;;;;0.80;0.80;;;23.40;45.60;22.70;102218.00;;;;5077625;28;20043;-64
2022/08/07 04:30:47;;;;;;;1.30;0.90;;;23.40;45.50;22.70;102227.00;;;;5077506;28;20393;-64
2022/08/07 04:33:35;;;;;;;0.70;0.70;;;23.50;45.50;22.70;102217.00;;;;5083268;28;20138;-64
2022/08/07 04:36:21;;;;;;;0.93;0.77;;;23.40;45.50;22.70;102220.00;;;;5076595;28;20040;-64
2022/08/07 04:39:07;;;;;;;1.10;0.98;;;23.40;45.50;22.70;102222.00;;;;5069936;28;20484;-64
2022/08/07 04:41:53;;;;;;;2.88;1.10;;;23.40;45.50;22.70;102228.00;;;;5090238;28;20098;-64
2022/08/07 04:44:39;;;;;;;1.40;1.08;;;23.40;45.40;22.60;102214.00;;;;5082809;28;20036;-64
2022/08/07 04:47:38;;;;;;;1.02;0.82;;;23.40;45.50;22.60;102220.00;;;;5086975;28;20055;-64
2022/08/07 04:50:44;;;;;;;1.20;0.80;;;23.40;45.50;22.60;102222.00;;;;5040963;28;20165;-64
2022/08/07 04:53:57;;;;;;;0.90;0.80;;;23.40;45.40;22.60;102216.00;;;;5072351;28;20040;-64
2022/08/07 04:57:12;;;;;;;1.10;1.00;;;23.30;45.50;22.60;102223.00;;;;5084358;28;20040;-64
2022/08/07 05:00:09;;;;;;;0.90;0.80;;;23.30;45.40;22.60;102216.00;;;;5075526;28;20132;-64
2022/08/07 05:03:32;;;;;;;1.08;0.82;;;23.30;45.40;22.60;102226.00;;;;5071886;28;20039;-64
2022/08/07 05:06:24;;;;;;;1.20;1.05;;;23.30;45.30;22.60;102222.00;;;;5074443;28;20040;-64
2022/08/07 05:09:22;;;;;;;1.08;0.90;;;23.40;46.10;22.60;102217.00;;;;5065621;28;20039;-64
2022/08/07 05:12:09;;;;;;;1.30;1.20;;;23.40;45.30;22.60;102226.00;;;;5071839;28;20636;-64
2022/08/07 05:15:14;;;;;;;2.13;1.38;;;23.30;45.20;22.60;102222.00;;;;5072062;28;20040;-64
2022/08/07 05:18:13;;;;;;;2.58;1.23;;;23.30;45.80;22.50;102223.00;;;;5065479;28;20044;-64
2022/08/07 05:21:02;;;;;;;2.15;0.98;;;23.30;45.10;22.60;102223.00;;;;5047266;28;20235;-64
2022/08/07 05:23:58;;;;;;;2.15;1.10;;;23.30;45.10;22.60;102222.00;;;;5071358;28;20036;-64
2022/08/07 05:26:45;;;;;;;0.98;0.95;;;23.30;45.10;22.60;102229.00;;;;5057700;28;20505;-64
2022/08/07 05:29:32;;;;;;;2.03;1.10;;;23.30;45.10;22.60;102220.00;;;;5069886;28;20051;-64
2022/08/07 05:32:18;;;;;;;2.30;1.50;;;23.30;45.20;22.60;102233.00;;;;5072818;28;20033;-64
2022/08/07 05:35:05;;;;;;;3.28;1.20;;;23.20;45.10;22.60;102234.00;;;;5085712;28;20101;-64
2022/08/07 05:37:51;;;;;;;1.23;1.13;;;23.30;45.20;22.60;102230.00;;;;5074369;28;20109;-63
2022/08/07 05:40:37;;;;;;;2.28;1.30;;;23.30;45.20;22.60;102236.00;;;;5071220;28;20044;-64
2022/08/07 05:43:23;;;;;;;1.38;1.25;;;23.30;45.30;22.60;102235.00;;;;5043061;28;20086;-64
2022/08/07 05:46:09;;;;;;;3.30;1.30;;;23.40;45.30;22.60;102230.00;;;;5080740;28;20481;-64
2022/08/07 05:48:55;;;;;;;1.67;1.20;;;23.40;45.40;22.60;102235.00;;;;5062548;28;20048;-63
2022/08/07 05:51:43;;;;;;;1.45;1.35;;;23.40;45.30;22.60;102241.00;;;;5060420;28;20035;-64
2022/08/07 05:54:29;;;;;;;2.65;1.52;;;23.40;45.30;22.60;102241.00;;;;5084991;28;20043;-64
2022/08/07 05:57:15;;;;;;;1.27;1.17;;;23.40;45.30;22.60;102248.00;;;;5071874;28;20048;-64
2022/08/07 06:00:01;;;;;;;2.10;1.30;;;23.40;45.40;22.60;102242.00;;;;5069130;28;20047;-64
2022/08/07 06:02:48;;;;;;;2.28;1.45;;;23.40;45.40;22.60;102244.00;;;;5071243;28;20468;-64
2022/08/07 06:05:34;;;;;;;1.40;1.30;;;23.40;45.40;22.70;102243.00;;;;5077535;28;20275;-64
2022/08/07 06:08:20;;;;;;;2.25;1.70;;;23.40;45.40;22.70;102247.00;;;;5071112;28;20036;-64
2022/08/07 06:11:06;;;;;;;1.77;1.42;;;23.50;45.40;22.70;102244.00;;;;5069241;28;20039;-64
2022/08/07 06:13:53;;;;;;;1.70;1.55;;;23.50;45.40;22.70;102250.00;;;;5068556;28;20195;-64
2022/08/07 06:16:39;;;;;;;2.83;1.95;;;23.50;45.40;22.70;102253.00;;;;5069711;28;20039;-64
2022/08/07 06:19:25;;;;;;;2.00;1.67;;;23.50;45.40;22.70;102255.00;;;;5056604;28;20040;-64
2022/08/07 06:22:11;;;;;;;2.13;1.80;;;23.50;45.40;22.70;102251.00;;;;5058690;28;20076;-64
2022/08/07 06:24:58;;;;;;;1.73;1.35;;;23.50;45.40;22.70;102247.00;;;;5059022;28;20353;-64
2022/08/07 06:27:44;;;;;;;1.98;1.50;;;23.60;45.50;22.70;102252.00;;;;5071638;28;20059;-64
2022/08/07 06:30:30;;;;;;;1.67;1.50;;;23.50;45.50;22.70;102258.00;;;;5088091;28;20036;-64
2022/08/07 06:33:17;;;;;;;2.60;1.55;;;23.60;45.50;22.70;102258.00;;;;5079322;28;20039;-63
2022/08/07 06:36:03;;;;;;;2.47;1.70;;;23.60;45.50;22.80;102261.00;;;;5085829;28;20540;-64
2022/08/07 06:38:49;;;;;;;2.22;1.60;;;23.60;45.50;22.80;102266.00;;;;5085828;28;20035;-64
2022/08/07 06:41:41;;;;;;;2.55;1.50;;;23.60;45.60;22.80;102259.00;;;;5081490;28;20063;-64
2022/08/07 06:44:27;;;;;;;2.47;1.80;;;23.60;45.60;22.80;102257.00;;;;5083412;28;20048;-64
2022/08/07 06:47:13;;;;;;;2.92;1.73;;;23.60;45.50;22.80;102245.00;;;;5055460;28;20081;-64
2022/08/07 06:49:59;;;;;;;2.30;1.98;;;23.70;45.50;22.80;102254.00;;;;5072434;28;20078;-64
2022/08/07 06:52:47;;;;;;;2.47;1.75;;;23.60;45.50;22.80;102248.00;;;;5082077;28;20039;-64
2022/08/07 06:55:33;;;;;;;2.72;1.70;;;23.70;45.50;22.80;102247.00;;;;5071641;28;20071;-64
2022/08/07 06:58:19;;;;;;;2.72;2.08;;;23.70;45.50;22.80;102237.00;;;;5073092;28;20443;-64
2022/08/07 07:01:08;;;;;;;3.90;2.15;;;23.70;45.50;22.90;102240.00;;;;5079565;28;20401;-64
2022/08/07 07:03:55;;;;;;;2.47;2.15;;;23.70;45.50;22.90;102231.00;;;;5072947;28;20036;-64
2022/08/07 07:06:43;;;;;;;1.95;1.63;;;23.70;45.50;22.90;102223.00;;;;5066740;28;20042;-64
2022/08/07 07:09:30;;;;;;;2.50;1.90;;;23.70;45.40;22.90;102230.00;;;;5060946;28;20497;-64
2022/08/07 07:12:39;;;;;;;2.45;1.70;;;23.80;45.50;22.90;102231.00;;;;5074754;28;20036;-64
2022/08/07 07:15:30;;;;;;;3.10;1.70;;;23.80;45.40;22.90;102230.00;;;;5059320;28;20069;-64
2022/08/07 07:18:22;;;;;;;1.95;1.67;;;23.80;45.40;22.90;102223.00;;;;5075326;28;20489;-64
2022/08/07 07:21:26;;;;;;;2.00;1.83;;;23.80;45.40;22.90;102222.00;;;;5062340;28;20048;-64
2022/08/07 07:24:15;;;;;;;2.85;1.95;;;23.80;45.40;22.90;102231.00;;;;5044618;28;20036;-64
2022/08/07 07:27:02;;;;;;;2.38;1.80;;;23.80;45.40;22.90;102225.00;;;;5066801;28;20402;-64
2022/08/07 07:29:52;;;;;;;2.10;1.90;;;23.80;45.40;22.90;102222.00;;;;5073741;28;20392;-64
2022/08/07 07:32:39;;;;;;;2.67;2.03;;;23.90;45.50;22.90;102224.00;;;;5057968;28;20494;-64
2022/08/07 07:35:25;;;;;;;2.38;1.75;;;23.90;45.40;23.00;102224.00;;;;5069107;28;20941;-64
2022/08/07 07:38:11;;;;;;;2.95;1.85;;;23.90;45.40;23.00;102228.00;;;;5070941;28;20040;-64
2022/08/07 07:41:03;;;;;;;2.33;1.73;;;23.90;45.40;23.00;102224.00;;;;5053696;28;20036;-64
2022/08/07 07:43:50;;;;;;;2.00;1.80;;;23.90;45.50;23.00;102226.00;;;;5068627;28;20045;-64
2022/08/07 07:46:36;;;;;;;2.47;1.63;;;23.90;45.40;23.00;102233.00;;;;5086033;28;20051;-64
2022/08/07 07:49:24;;;;;;;1.70;1.60;;;23.90;45.40;23.00;102218.00;;;;5064067;28;20043;-64
2022/08/07 07:52:11;;;;;;;2.58;1.60;;;23.80;45.30;23.00;102214.00;;;;5050504;28;20029;-64
2022/08/07 07:54:57;;;;;;;;;;;24.00;45.40;23.00;102214.00;;;;5057535;28;20119;-64
2022/08/07 07:57:43;;;;;;;1.95;1.75;;;24.00;45.40;23.00;102206.00;;;;5077942;28;20029;-64
2022/08/07 08:00:29;;;;;;;2.00;1.58;;;24.00;45.30;23.00;102205.00;;;;5075224;28;20041;-64
2022/08/07 08:03:16;;;;;;;2.88;1.65;;;24.00;45.30;23.00;102207.00;;;;5067216;28;20036;-64
2022/08/07 08:06:02;;;;;;;2.40;1.58;;;24.00;45.30;23.00;102211.00;;;;5072040;28;20352;-64
2022/08/07 08:08:48;;;;;;;1.88;1.65;;;24.00;45.30;23.00;102208.00;;;;5067762;28;20395;-64
2022/08/07 08:11:34;;;;;;;2.50;1.60;;;24.00;45.30;23.00;102204.00;;;;5068622;28;20044;-64
2022/08/07 08:14:20;;;;;;;1.92;1.73;;;24.10;45.40;23.00;102201.00;;;;5069607;28;20040;-63
2022/08/07 08:17:09;;;;;;;1.92;1.67;;;24.00;45.30;23.00;102203.00;;;;5075638;28;20040;-64
2022/08/07 08:20:00;;;;;;;1.88;1.60;;;24.00;45.30;23.00;102206.00;;;;5072214;28;20040;-64
2022/08/07 08:28:53;;;;;;;1.88;1.40;;;24.00;45.30;23.10;102201.00;;;;5059767;28;20486;-64
2022/08/07 08:31:39;;;;;;;1.63;1.40;;;24.00;45.30;23.10;102198.00;;;;5072111;28;20048;-64
2022/08/07 08:34:25;;;;;;;2.97;1.67;;;24.10;45.30;23.10;102197.00;;;;5037107;28;20032;-64
2022/08/07 08:37:12;;;;;;;1.63;1.25;;;24.00;46.00;23.10;102193.00;;;;5077216;28;20035;-64
2022/08/07 08:39:58;;;;;;;2.42;1.63;;;24.00;45.30;23.10;102197.00;;;;5069698;28;20041;-64
2022/08/07 08:43:39;;;;;;;1.95;1.35;;;24.10;45.30;23.10;102193.00;;;;5079901;28;20059;-64
2022/08/07 08:46:51;;;;;;;2.13;1.13;;;24.00;45.30;23.10;102202.00;;;;5059333;28;20052;-64
2022/08/07 08:50:24;;;;;;;1.30;1.20;;;24.10;45.30;23.10;102194.00;;;;5064071;28;20040;-64
2022/08/07 08:53:34;;;;;;;1.77;1.30;;;24.10;45.30;23.10;102200.00;;;;5012909;28;20033;-64
2022/08/07 08:56:43;;;;;;;1.75;1.15;;;24.10;45.30;23.10;102195.00;;;;4991778;28;20049;-64
2022/08/07 08:59:49;;;;;;;2.03;1.50;;;24.10;45.30;23.10;102196.00;;;;5067924;28;20501;-64
2022/08/07 09:02:48;;;;;;;1.55;1.27;;;24.10;45.40;23.10;102191.00;;;;5073439;28;20040;-64
2022/08/07 09:05:59;;;;;;;1.60;1.30;;;24.10;45.30;23.10;102191.00;;;;5070729;28;20202;-64
2022/08/07 09:09:02;;;;;;;2.10;1.70;;;24.10;45.30;23.10;102191.00;;;;5061692;28;20040;-64
2022/08/07 09:12:26;;;;;;;1.42;1.10;;;24.10;45.30;23.10;102193.00;;;;5046528;28;20044;-64
2022/08/07 09:15:43;;;;;;;0.90;0.90;;;24.10;45.30;23.10;102185.00;;;;5059361;28;20175;-64
2022/08/07 09:18:59;;;;;;;1.20;1.10;;;24.10;45.30;23.10;102184.00;;;;5083957;28;20123;-64
2022/08/07 09:22:06;;;;;;;1.58;1.20;;;24.10;45.30;23.10;102178.00;;;;5073886;28;20040;-64
2022/08/07 09:25:25;;;;;;;1.40;1.10;;;24.10;45.30;23.10;102176.00;;;;5084889;28;20048;-64
2022/08/07 09:28:23;;;;;;;1.20;1.10;;;24.10;45.40;23.10;102177.00;;;;5071692;28;20036;-64
2022/08/07 09:31:50;;;;;;;1.42;1.05;;;24.10;45.30;23.10;102174.00;;;;5073390;28;20109;-64
2022/08/07 09:35:19;;;;;;;1.00;0.90;;;24.10;45.20;23.10;102173.00;;;;5089825;28;20044;-64
2022/08/07 09:38:11;;;;;;;1.58;1.10;;;24.10;45.20;23.10;102179.00;;;;5075702;28;20044;-64
2022/08/07 09:41:06;;;;;;;1.10;0.90;;;24.10;45.20;23.10;102169.00;;;;5071226;28;20033;-64
2022/08/07 09:44:36;;;;;;;1.20;0.82;;;24.10;45.10;23.10;102165.00;;;;5079070;28;20040;-64
2022/08/07 09:47:32;;;;;;;1.10;1.00;;;24.10;45.10;23.10;102171.00;;;;5076117;28;20105;-63
2022/08/07 09:50:35;;;;;;;1.02;0.90;;;24.20;45.10;23.10;102172.00;;;;5070994;28;20276;-64
2022/08/07 09:53:23;;;;;;;1.45;1.00;;;24.00;45.00;23.10;102155.00;;;;5065348;28;20394;-64
2022/08/07 09:56:18;;;;;;;1.63;1.08;;;24.20;45.10;23.10;102162.00;;;;5080652;28;20028;-63
2022/08/07 09:59:51;;;;;;;1.13;1.02;;;24.10;45.00;23.20;102159.00;;;;5080195;28;20055;-64
2022/08/07 10:03:22;;;;;;;1.55;1.00;;;24.00;44.80;23.10;102159.00;;;;5083146;28;20355;-63
2022/08/07 10:06:30;;;;;;;1.00;0.90;;;24.10;45.00;23.10;102160.00;;;;5069533;28;20062;-64
2022/08/07 10:09:53;;;;;;;0.85;0.85;;;24.20;45.00;23.10;102148.00;;;;5067202;28;20478;-64
2022/08/07 10:13:12;;;;;;;1.85;0.80;;;24.20;45.00;23.10;102140.00;;;;5077049;28;20550;-64
2022/08/07 10:16:33;;;;;;;1.02;0.95;;;24.20;44.90;23.10;102137.00;;;;5072925;28;20036;-64
2022/08/07 10:20:07;;;;;;;0.73;0.65;;;24.20;45.00;23.20;102142.00;;;;5063700;28;20040;-64
2022/08/07 10:23:08;;;;;;;1.48;1.00;;;24.20;45.00;23.20;102130.00;;;;5061018;28;20036;-64
2022/08/07 10:26:31;;;;;;;1.75;1.17;;;24.20;45.00;23.20;102126.00;;;;5078755;28;20055;-64
2022/08/07 10:29:46;;;;;;;1.52;1.13;;;24.20;45.00;23.20;102125.00;;;;5085912;28;20378;-64
2022/08/07 10:32:53;;;;;;;1.65;0.80;;;24.20;44.90;23.20;102128.00;;;;5076833;28;20131;-64
2022/08/07 10:36:14;;;;;;;0.70;0.70;;;24.20;44.80;23.20;102122.00;;;;5087495;28;20394;-64
2022/08/07 10:39:26;;;;;;;1.23;0.60;;;24.20;44.80;23.20;102119.00;;;;5070176;28;20032;-63
2022/08/07 10:42:35;;;;;;;1.30;0.85;;;24.20;44.70;23.20;102112.00;;;;5062988;28;20060;-64
2022/08/07 10:45:25;;;;;;;1.38;0.75;;;24.20;44.60;23.20;102116.00;;;;5073945;28;20036;-64
2022/08/07 10:48:37;;;;;;;1.05;0.85;;;24.20;44.70;23.30;102108.00;;;;5053281;28;20512;-64
2022/08/07 10:51:47;;;;;;;2.88;0.82;;;24.20;44.70;23.30;102112.00;;;;5089058;28;20492;-64
2022/08/07 10:55:06;;;;;;;1.30;0.80;;;24.20;44.70;23.30;102105.00;;;;5078434;28;20137;-64
2022/08/07 10:57:57;;;;;;;1.30;0.70;;;24.30;44.60;23.30;102100.00;;;;5073117;28;20185;-64
2022/08/07 11:01:03;;;;;;;2.05;0.85;;;24.30;44.70;23.30;102095.00;;;;5077829;28;20112;-64
2022/08/07 11:04:09;;;;;;;1.55;0.60;;;24.30;44.70;23.30;102096.00;;;;5080465;28;20046;-64
2022/08/07 11:07:21;;;;;;;1.25;0.80;;;24.30;44.60;23.30;102084.00;;;;5050267;28;20052;-64
2022/08/07 11:10:56;;;;;;;0.90;0.63;;;24.30;44.60;23.30;102086.00;;;;5056338;28;20044;-64
2022/08/07 11:13:45;;;;;;;1.05;0.70;;;24.30;44.60;23.30;102082.00;;;;5081256;28;20047;-64
2022/08/07 11:17:20;;;;;;;1.92;0.75;;;24.40;44.70;23.30;102081.00;;;;5070427;28;20033;-64
2022/08/07 11:20:40;;;;;;;0.90;0.68;;;24.30;44.70;23.30;102080.00;;;;5029226;28;20045;-66
2022/08/07 11:24:02;;;;;;;0.50;0.50;;;24.30;44.60;23.30;102080.00;;;;5010440;28;20073;-65
2022/08/07 11:26:55;;;;;;;1.75;0.70;;;24.30;44.50;23.30;102067.00;;;;5061105;28;20040;-64
2022/08/07 11:29:53;;;;;;;0.55;0.55;;;24.40;44.50;23.30;102067.00;;;;5077809;28;20516;-64
2022/08/07 11:32:52;;;;;;;2.88;0.90;;;24.30;44.50;23.30;102068.00;;;;5081073;28;20159;-64
2022/08/07 11:35:56;;;;;;;1.40;0.70;;;24.40;44.50;23.30;102062.00;;;;5072932;28;20078;-64
2022/08/07 11:38:51;;;;;;;1.92;0.73;;;24.40;44.50;23.30;102050.00;;;;5077512;28;20032;-64
2022/08/07 11:42:12;;;;;;;0.70;0.60;;;24.40;44.40;23.30;102051.00;;;;5067808;28;20035;-64
2022/08/07 11:45:25;;;;;;;0.80;0.60;;;24.40;44.30;23.30;102048.00;;;;5057790;28;20028;-64
2022/08/07 11:48:23;;;;;;;1.90;0.75;;;24.40;44.30;23.40;102044.00;;;;5075365;28;20043;-65
2022/08/07 11:51:12;;;;;;;;;;;24.40;44.20;23.30;102040.00;;;;5075228;28;20032;-64
2022/08/07 11:54:35;;;;;;;0.50;0.50;;;24.40;44.40;23.30;102038.00;;;;5082459;28;19920;-64
2022/08/07 11:57:32;;;;;;;0.88;0.60;;;24.40;43.90;23.30;102046.00;;;;5072909;28;20543;-64
2022/08/07 12:00:24;;;;;;;0.85;0.80;;;24.40;43.80;23.40;102043.00;;;;5069117;28;20028;-64
2022/08/07 12:03:44;;;;;;;0.70;0.60;;;24.50;43.70;23.40;102042.00;;;;5077775;28;20066;-64
2022/08/07 12:06:43;;;;;;;3.53;0.68;;;24.40;43.50;23.40;102034.00;;;;5084557;28;20028;-65
2022/08/07 12:09:48;;;;;;;1.15;0.80;;;24.50;43.40;23.40;102033.00;;;;5075944;28;20032;-64
2022/08/07 12:12:43;;;;;;;1.13;0.80;;;24.50;43.30;23.40;102031.00;;;;5060089;28;20048;-64
2022/08/07 12:15:51;;;;;;;0.77;0.60;;;24.50;43.20;23.40;102034.00;;;;5072456;28;20051;-64
2022/08/07 12:18:50;;;;;;;;;;;24.40;43.20;23.40;102031.00;;;;5067801;28;20047;-64
2022/08/07 12:22:27;;;;;;;1.73;0.60;;;24.50;43.60;23.40;102042.00;;;;5082129;28;20270;-64
2022/08/07 12:28:46;;;;;;;1.38;0.73;;;24.60;42.90;23.40;102035.00;;;;5076637;28;20040;-64
2022/08/07 12:32:12;;;;;;;1.42;0.70;;;24.60;43.00;23.40;102022.00;;;;5070849;28;20117;-64
2022/08/07 12:35:00;;;;;;;1.38;0.60;;;24.60;42.90;23.40;102027.00;;;;5092103;28;20389;-64
2022/08/07 12:37:48;;;;;;;1.15;0.80;;;24.60;43.00;23.40;102024.00;;;;5076652;28;20086;-64
2022/08/07 12:40:35;;;;;;;0.70;0.70;;;24.50;43.10;23.40;102028.00;;;;5077037;28;20051;-64
2022/08/07 12:43:28;;;;;;;0.75;0.63;;;24.60;43.10;23.50;102029.00;;;;5071047;28;20408;-64
2022/08/07 12:46:35;;;;;;;0.98;0.70;;;24.60;43.00;23.50;102021.00;;;;5077542;28;20050;-64
2022/08/07 12:49:53;;;;;;;1.10;0.65;;;24.60;43.10;23.50;102012.00;;;;5085999;28;20046;-64
2022/08/07 12:53:09;;;;;;;0.65;0.60;;;24.60;42.80;23.50;102014.00;;;;5065259;28;20036;-64
2022/08/07 12:56:29;;;;;;;0.98;0.77;;;24.60;42.90;23.50;102016.00;;;;5077349;28;20036;-64